Palma De Mallorca, Spain

3:23 PM CEST on September 05, 2015 (GMT +0200)
Ciudad Jardin | | Change Station
CLOSE
Current Station
Personal Weather Station
Location: Palma De Mallorca, ILLES BALEARS
Elevation: 20 ft
Nearby Weather Stations

Elev 20 ft 39.55 °N, 2.69 °E | Updated 2 seconds ago

Scattered Clouds
Scattered Clouds
78.3 °F
Feels Like 80 °F
N
4.0
Wind Variable Wind from ENE
Gusts 4.0 mph

Today
High -- | Low -- °F
--% Chance of Precip.
Yesterday
High -- | Low -- °F
Precip. -- in
7:20 AM 8:14 PM
Waning Gibbous, 48% visible
Pressure 30.09 in
Visibility 6.2 miles
Clouds Few 2500 ft
Scattered Clouds 4500 ft
Heat Index 80 °F
Dew Point 62 °F
Humidity 57%
Rainfall 0.00 in
Snow Depth Not available.
UV 7 out of 12
Pollen Not available.
Air Quality Not available.
Flu Activity Not available.
METAR LEPA 051300Z 06008KT 030V110 9999 FEW025 SCT045 26/16 Q1019 NOSIG
Pressure 30.09 in
Visibility 6.2 miles
Clouds Few 2500 ft
Scattered Clouds 4500 ft
Heat Index 80 °F
Dew Point 62 °F
Humidity 57%
Rainfall 0.00 in
Snow Depth Not available.
UV 7 out of 12
Pollen Not available.
Air Quality Not available.
Flu Activity Not available.
METAR LEPA 051300Z 06008KT 030V110 9999 FEW025 SCT045 26/16 Q1019 NOSIG

10-Day Weather Forecast

×

Almanac

Astronomy

Sep. 05, 2015 Rise Set
Actual Time
Civil Twilight
Nautical Twilight
Astronomical Twilight
Moon
Length of Visible Light
Length of Day
Tomorrow will be .
, % of the Moon is Illuminated

Today's Extremes

Country Highs Country Lows

Community

WunderPhotos

Upload Photos

1,852,454 photos uploaded!

WunderBlogs® & News

Nearby

Air Quality

  Air Quality AQ Index Pollutant
Not available.

Snow Depth

Station Depth Elevation

Earthquake Activity

City Distance Mag. Time & Date
Minimum magnitude displayed is 2.5.

Coastal Water Temperatures

Place Temperature

Stations

Nearby Weather Stations

Station Location Temp. Windchill Dew Point Humidity Wind Precip. Elev Updated Type